sensor_id;sensor_type;location;lat;lon;timestamp;P1;durP1;ratioP1;P2;durP2;ratioP2
4674;SDS011;2351;50.812;12.872;2024-02-21T00:01:21;14.30;;;4.30;;
4674;SDS011;2351;50.812;12.872;2024-02-21T00:03:55;27.17;;;2.97;;
4674;SDS011;2351;50.812;12.872;2024-02-21T00:06:27;12.57;;;3.97;;
4674;SDS011;2351;50.812;12.872;2024-02-21T00:08:58;10.13;;;3.07;;
4674;SDS011;2351;50.812;12.872;2024-02-21T00:11:30;8.87;;;3.50;;
4674;SDS011;2351;50.812;12.872;2024-02-21T00:14:02;13.73;;;4.00;;
4674;SDS011;2351;50.812;12.872;2024-02-21T00:16:33;15.83;;;3.90;;
4674;SDS011;2351;50.812;12.872;2024-02-21T00:19:06;6.63;;;2.83;;
4674;SDS011;2351;50.812;12.872;2024-02-21T00:21:38;25.47;;;4.63;;
4674;SDS011;2351;50.812;12.872;2024-02-21T00:24:10;9.10;;;3.17;;
4674;SDS011;2351;50.812;12.872;2024-02-21T00:26:42;6.97;;;3.53;;
4674;SDS011;2351;50.812;12.872;2024-02-21T00:29:13;14.17;;;3.17;;
4674;SDS011;2351;50.812;12.872;2024-02-21T00:31:45;11.00;;;3.87;;
4674;SDS011;2351;50.812;12.872;2024-02-21T00:34:18;10.63;;;3.33;;
4674;SDS011;2351;50.812;12.872;2024-02-21T00:36:50;14.57;;;3.73;;
4674;SDS011;2351;50.812;12.872;2024-02-21T00:39:21;13.27;;;3.97;;
4674;SDS011;2351;50.812;12.872;2024-02-21T00:41:53;11.50;;;4.23;;
4674;SDS011;2351;50.812;12.872;2024-02-21T00:44:25;10.03;;;3.43;;
4674;SDS011;2351;50.812;12.872;2024-02-21T00:46:56;13.57;;;3.87;;
4674;SDS011;2351;50.812;12.872;2024-02-21T00:49:29;19.93;;;5.67;;
4674;SDS011;2351;50.812;12.872;2024-02-21T00:52:01;14.90;;;3.73;;
4674;SDS011;2351;50.812;12.872;2024-02-21T00:54:33;14.23;;;3.70;;
4674;SDS011;2351;50.812;12.872;2024-02-21T00:57:05;18.97;;;4.50;;
4674;SDS011;2351;50.812;12.872;2024-02-21T00:59:37;8.97;;;4.00;;
4674;SDS011;2351;50.812;12.872;2024-02-21T01:02:08;15.20;;;4.13;;
4674;SDS011;2351;50.812;12.872;2024-02-21T01:04:41;19.37;;;5.33;;
4674;SDS011;2351;50.812;12.872;2024-02-21T01:07:13;22.67;;;5.07;;
4674;SDS011;2351;50.812;12.872;2024-02-21T01:09:45;15.67;;;3.97;;
4674;SDS011;2351;50.812;12.872;2024-02-21T01:12:16;14.13;;;3.50;;
4674;SDS011;2351;50.812;12.872;2024-02-21T01:14:48;15.30;;;4.20;;
4674;SDS011;2351;50.812;12.872;2024-02-21T01:17:20;10.37;;;4.00;;
4674;SDS011;2351;50.812;12.872;2024-02-21T01:19:53;24.90;;;5.10;;
4674;SDS011;2351;50.812;12.872;2024-02-21T01:22:25;18.87;;;3.83;;
4674;SDS011;2351;50.812;12.872;2024-02-21T01:24:56;11.93;;;4.07;;
4674;SDS011;2351;50.812;12.872;2024-02-21T01:27:28;19.57;;;4.77;;
4674;SDS011;2351;50.812;12.872;2024-02-21T01:30:00;12.63;;;4.33;;
4674;SDS011;2351;50.812;12.872;2024-02-21T01:32:32;12.63;;;4.53;;
4674;SDS011;2351;50.812;12.872;2024-02-21T01:35:05;21.17;;;5.00;;
4674;SDS011;2351;50.812;12.872;2024-02-21T01:37:37;11.30;;;4.00;;
4674;SDS011;2351;50.812;12.872;2024-02-21T01:40:09;9.27;;;4.37;;
4674;SDS011;2351;50.812;12.872;2024-02-21T01:42:42;17.67;;;5.07;;
4674;SDS011;2351;50.812;12.872;2024-02-21T01:45:14;13.97;;;5.23;;
4674;SDS011;2351;50.812;12.872;2024-02-21T01:47:45;18.90;;;5.87;;
4674;SDS011;2351;50.812;12.872;2024-02-21T01:50:19;16.43;;;4.47;;
4674;SDS011;2351;50.812;12.872;2024-02-21T01:52:53;13.30;;;4.50;;
4674;SDS011;2351;50.812;12.872;2024-02-21T01:55:25;13.93;;;4.63;;
4674;SDS011;2351;50.812;12.872;2024-02-21T01:57:57;25.10;;;4.87;;
4674;SDS011;2351;50.812;12.872;2024-02-21T02:00:29;11.43;;;4.63;;
4674;SDS011;2351;50.812;12.872;2024-02-21T02:03:01;17.73;;;5.33;;
4674;SDS011;2351;50.812;12.872;2024-02-21T02:05:34;13.60;;;4.63;;
4674;SDS011;2351;50.812;12.872;2024-02-21T02:08:06;10.93;;;3.83;;
4674;SDS011;2351;50.812;12.872;2024-02-21T02:10:40;22.20;;;5.40;;
4674;SDS011;2351;50.812;12.872;2024-02-21T02:13:12;8.87;;;4.40;;
4674;SDS011;2351;50.812;12.872;2024-02-21T02:15:44;13.07;;;5.20;;
4674;SDS011;2351;50.812;12.872;2024-02-21T02:18:17;16.80;;;5.50;;
4674;SDS011;2351;50.812;12.872;2024-02-21T02:20:51;13.03;;;4.63;;
4674;SDS011;2351;50.812;12.872;2024-02-21T02:23:25;15.53;;;5.33;;
4674;SDS011;2351;50.812;12.872;2024-02-21T02:25:57;21.67;;;4.77;;
4674;SDS011;2351;50.812;12.872;2024-02-21T02:28:29;12.97;;;4.77;;
4674;SDS011;2351;50.812;12.872;2024-02-21T02:31:01;18.90;;;5.43;;
4674;SDS011;2351;50.812;12.872;2024-02-21T02:33:33;16.50;;;4.73;;
4674;SDS011;2351;50.812;12.872;2024-02-21T02:36:05;11.90;;;4.73;;
4674;SDS011;2351;50.812;12.872;2024-02-21T02:38:38;12.07;;;4.43;;
4674;SDS011;2351;50.812;12.872;2024-02-21T02:41:10;11.90;;;4.40;;
4674;SDS011;2351;50.812;12.872;2024-02-21T02:43:41;19.17;;;3.90;;
4674;SDS011;2351;50.812;12.872;2024-02-21T02:46:13;14.93;;;5.00;;
4674;SDS011;2351;50.812;12.872;2024-02-21T02:48:45;15.67;;;4.47;;
4674;SDS011;2351;50.812;12.872;2024-02-21T02:51:16;15.47;;;4.30;;
4674;SDS011;2351;50.812;12.872;2024-02-21T02:53:50;16.67;;;5.60;;
4674;SDS011;2351;50.812;12.872;2024-02-21T02:56:21;14.97;;;4.63;;
4674;SDS011;2351;50.812;12.872;2024-02-21T02:58:53;15.43;;;5.07;;
4674;SDS011;2351;50.812;12.872;2024-02-21T03:01:24;19.60;;;5.07;;
4674;SDS011;2351;50.812;12.872;2024-02-21T03:03:57;44.87;;;5.60;;
4674;SDS011;2351;50.812;12.872;2024-02-21T03:06:29;14.33;;;4.57;;
4674;SDS011;2351;50.812;12.872;2024-02-21T03:09:02;16.57;;;5.33;;
4674;SDS011;2351;50.812;12.872;2024-02-21T03:11:38;10.63;;;4.77;;
4674;SDS011;2351;50.812;12.872;2024-02-21T03:14:11;17.97;;;4.80;;
4674;SDS011;2351;50.812;12.872;2024-02-21T03:16:42;17.13;;;5.47;;
4674;SDS011;2351;50.812;12.872;2024-02-21T03:19:14;15.70;;;5.47;;
4674;SDS011;2351;50.812;12.872;2024-02-21T03:21:46;14.20;;;4.13;;
4674;SDS011;2351;50.812;12.872;2024-02-21T03:24:19;14.20;;;4.77;;
4674;SDS011;2351;50.812;12.872;2024-02-21T03:26:51;15.17;;;4.97;;
4674;SDS011;2351;50.812;12.872;2024-02-21T03:29:22;11.80;;;4.70;;
4674;SDS011;2351;50.812;12.872;2024-02-21T03:31:54;15.90;;;5.27;;
4674;SDS011;2351;50.812;12.872;2024-02-21T03:34:26;10.17;;;4.27;;
4674;SDS011;2351;50.812;12.872;2024-02-21T03:36:58;14.67;;;4.87;;
4674;SDS011;2351;50.812;12.872;2024-02-21T03:39:32;12.50;;;5.10;;
4674;SDS011;2351;50.812;12.872;2024-02-21T03:42:04;12.80;;;5.00;;
4674;SDS011;2351;50.812;12.872;2024-02-21T03:44:36;15.20;;;5.00;;
4674;SDS011;2351;50.812;12.872;2024-02-21T03:47:08;10.73;;;5.07;;
4674;SDS011;2351;50.812;12.872;2024-02-21T03:49:41;18.27;;;6.50;;
4674;SDS011;2351;50.812;12.872;2024-02-21T03:52:13;21.33;;;5.60;;
4674;SDS011;2351;50.812;12.872;2024-02-21T03:54:46;16.27;;;5.50;;
4674;SDS011;2351;50.812;12.872;2024-02-21T03:57:18;16.33;;;4.90;;
4674;SDS011;2351;50.812;12.872;2024-02-21T03:59:50;14.30;;;5.60;;
4674;SDS011;2351;50.812;12.872;2024-02-21T04:02:22;13.37;;;4.97;;
4674;SDS011;2351;50.812;12.872;2024-02-21T04:04:53;14.40;;;4.57;;
4674;SDS011;2351;50.812;12.872;2024-02-21T04:07:25;16.97;;;5.83;;
4674;SDS011;2351;50.812;12.872;2024-02-21T04:09:58;12.33;;;4.70;;
4674;SDS011;2351;50.812;12.872;2024-02-21T04:12:30;11.90;;;5.30;;
4674;SDS011;2351;50.812;12.872;2024-02-21T04:15:02;13.97;;;5.47;;
4674;SDS011;2351;50.812;12.872;2024-02-21T04:17:34;13.97;;;5.93;;
4674;SDS011;2351;50.812;12.872;2024-02-21T04:20:06;26.80;;;5.93;;
4674;SDS011;2351;50.812;12.872;2024-02-21T04:22:44;16.30;;;5.47;;
4674;SDS011;2351;50.812;12.872;2024-02-21T04:25:17;21.47;;;5.47;;
4674;SDS011;2351;50.812;12.872;2024-02-21T04:27:49;12.50;;;5.50;;
4674;SDS011;2351;50.812;12.872;2024-02-21T04:30:21;19.13;;;5.40;;
4674;SDS011;2351;50.812;12.872;2024-02-21T04:32:53;13.60;;;4.60;;
4674;SDS011;2351;50.812;12.872;2024-02-21T04:35:24;14.97;;;5.27;;
4674;SDS011;2351;50.812;12.872;2024-02-21T04:37:56;12.50;;;5.00;;
4674;SDS011;2351;50.812;12.872;2024-02-21T04:40:29;15.60;;;6.20;;
4674;SDS011;2351;50.812;12.872;2024-02-21T04:43:01;15.17;;;4.67;;
4674;SDS011;2351;50.812;12.872;2024-02-21T04:45:33;19.53;;;5.60;;
4674;SDS011;2351;50.812;12.872;2024-02-21T04:48:04;11.83;;;5.07;;
4674;SDS011;2351;50.812;12.872;2024-02-21T04:50:36;14.77;;;5.50;;
4674;SDS011;2351;50.812;12.872;2024-02-21T04:53:08;17.20;;;6.83;;
4674;SDS011;2351;50.812;12.872;2024-02-21T04:55:41;19.60;;;5.87;;
4674;SDS011;2351;50.812;12.872;2024-02-21T04:58:13;20.73;;;5.60;;
4674;SDS011;2351;50.812;12.872;2024-02-21T05:00:44;23.13;;;6.23;;
4674;SDS011;2351;50.812;12.872;2024-02-21T05:03:16;21.90;;;5.80;;
4674;SDS011;2351;50.812;12.872;2024-02-21T05:05:47;14.40;;;5.83;;
4674;SDS011;2351;50.812;12.872;2024-02-21T05:08:19;13.80;;;4.90;;
4674;SDS011;2351;50.812;12.872;2024-02-21T05:10:52;12.60;;;5.00;;
4674;SDS011;2351;50.812;12.872;2024-02-21T05:13:24;21.03;;;5.33;;
4674;SDS011;2351;50.812;12.872;2024-02-21T05:15:56;23.97;;;5.67;;
4674;SDS011;2351;50.812;12.872;2024-02-21T05:18:31;17.30;;;6.93;;
4674;SDS011;2351;50.812;12.872;2024-02-21T05:21:04;11.60;;;5.93;;
4674;SDS011;2351;50.812;12.872;2024-02-21T05:23:35;20.50;;;6.70;;
4674;SDS011;2351;50.812;12.872;2024-02-21T05:26:10;30.03;;;6.40;;
4674;SDS011;2351;50.812;12.872;2024-02-21T05:28:42;16.83;;;6.27;;
4674;SDS011;2351;50.812;12.872;2024-02-21T05:31:14;20.23;;;6.93;;
4674;SDS011;2351;50.812;12.872;2024-02-21T05:33:45;22.07;;;6.60;;
4674;SDS011;2351;50.812;12.872;2024-02-21T05:36:17;40.20;;;6.60;;
4674;SDS011;2351;50.812;12.872;2024-02-21T05:38:49;18.17;;;6.17;;
4674;SDS011;2351;50.812;12.872;2024-02-21T05:41:22;12.20;;;5.63;;
4674;SDS011;2351;50.812;12.872;2024-02-21T05:43:53;15.13;;;6.00;;
4674;SDS011;2351;50.812;12.872;2024-02-21T05:46:25;18.73;;;6.70;;
4674;SDS011;2351;50.812;12.872;2024-02-21T05:49:03;13.47;;;5.57;;
4674;SDS011;2351;50.812;12.872;2024-02-21T05:51:35;10.40;;;5.53;;
4674;SDS011;2351;50.812;12.872;2024-02-21T05:54:06;14.37;;;5.80;;
4674;SDS011;2351;50.812;12.872;2024-02-21T05:56:43;14.37;;;6.20;;
4674;SDS011;2351;50.812;12.872;2024-02-21T05:59:15;19.63;;;6.27;;
4674;SDS011;2351;50.812;12.872;2024-02-21T06:01:54;23.47;;;7.07;;
4674;SDS011;2351;50.812;12.872;2024-02-21T06:04:28;18.23;;;6.87;;
4674;SDS011;2351;50.812;12.872;2024-02-21T06:06:59;19.90;;;7.20;;
4674;SDS011;2351;50.812;12.872;2024-02-21T06:09:31;17.43;;;6.53;;
4674;SDS011;2351;50.812;12.872;2024-02-21T06:12:05;17.63;;;7.00;;
4674;SDS011;2351;50.812;12.872;2024-02-21T06:14:36;11.80;;;5.80;;
4674;SDS011;2351;50.812;12.872;2024-02-21T06:17:08;23.03;;;6.67;;
4674;SDS011;2351;50.812;12.872;2024-02-21T06:19:40;17.70;;;5.90;;
4674;SDS011;2351;50.812;12.872;2024-02-21T06:22:13;16.23;;;5.60;;
4674;SDS011;2351;50.812;12.872;2024-02-21T06:24:45;24.13;;;6.43;;
4674;SDS011;2351;50.812;12.872;2024-02-21T06:27:18;15.93;;;6.37;;
4674;SDS011;2351;50.812;12.872;2024-02-21T06:29:49;26.10;;;7.20;;
4674;SDS011;2351;50.812;12.872;2024-02-21T06:32:21;18.10;;;6.27;;
4674;SDS011;2351;50.812;12.872;2024-02-21T06:34:53;9.73;;;5.80;;
4674;SDS011;2351;50.812;12.872;2024-02-21T06:37:24;21.57;;;6.17;;
4674;SDS011;2351;50.812;12.872;2024-02-21T06:39:56;25.13;;;6.87;;
4674;SDS011;2351;50.812;12.872;2024-02-21T06:42:29;12.00;;;6.03;;
4674;SDS011;2351;50.812;12.872;2024-02-21T06:45:01;16.30;;;6.30;;
4674;SDS011;2351;50.812;12.872;2024-02-21T06:47:32;9.77;;;4.97;;
4674;SDS011;2351;50.812;12.872;2024-02-21T06:50:04;16.73;;;5.67;;
4674;SDS011;2351;50.812;12.872;2024-02-21T06:52:37;16.73;;;6.83;;
4674;SDS011;2351;50.812;12.872;2024-02-21T06:55:08;11.80;;;5.23;;
4674;SDS011;2351;50.812;12.872;2024-02-21T06:57:41;17.43;;;6.13;;
4674;SDS011;2351;50.812;12.872;2024-02-21T07:00:13;19.40;;;6.80;;
4674;SDS011;2351;50.812;12.872;2024-02-21T07:02:46;21.63;;;6.40;;
4674;SDS011;2351;50.812;12.872;2024-02-21T07:05:19;25.53;;;6.70;;
4674;SDS011;2351;50.812;12.872;2024-02-21T07:07:51;19.07;;;6.50;;
4674;SDS011;2351;50.812;12.872;2024-02-21T07:10:22;17.47;;;6.80;;
4674;SDS011;2351;50.812;12.872;2024-02-21T07:12:55;23.83;;;6.90;;
4674;SDS011;2351;50.812;12.872;2024-02-21T07:15:27;18.30;;;6.57;;
4674;SDS011;2351;50.812;12.872;2024-02-21T07:18:01;16.27;;;6.07;;
4674;SDS011;2351;50.812;12.872;2024-02-21T07:20:32;13.70;;;5.90;;
4674;SDS011;2351;50.812;12.872;2024-02-21T07:23:06;17.37;;;6.03;;
4674;SDS011;2351;50.812;12.872;2024-02-21T07:25:38;13.70;;;6.07;;
4674;SDS011;2351;50.812;12.872;2024-02-21T07:28:12;13.63;;;5.20;;
4674;SDS011;2351;50.812;12.872;2024-02-21T07:30:44;14.13;;;5.67;;
4674;SDS011;2351;50.812;12.872;2024-02-21T07:33:16;13.63;;;6.00;;
4674;SDS011;2351;50.812;12.872;2024-02-21T07:35:47;20.43;;;6.10;;
4674;SDS011;2351;50.812;12.872;2024-02-21T07:38:19;20.53;;;7.50;;
4674;SDS011;2351;50.812;12.872;2024-02-21T07:40:51;12.67;;;5.90;;
4674;SDS011;2351;50.812;12.872;2024-02-21T07:43:24;19.90;;;6.80;;
4674;SDS011;2351;50.812;12.872;2024-02-21T07:45:56;13.93;;;5.70;;
4674;SDS011;2351;50.812;12.872;2024-02-21T07:48:28;14.10;;;5.93;;
4674;SDS011;2351;50.812;12.872;2024-02-21T07:51:00;19.00;;;6.57;;
4674;SDS011;2351;50.812;12.872;2024-02-21T07:53:31;11.07;;;5.23;;
4674;SDS011;2351;50.812;12.872;2024-02-21T07:56:03;19.67;;;6.27;;
4674;SDS011;2351;50.812;12.872;2024-02-21T07:58:37;18.50;;;6.03;;
4674;SDS011;2351;50.812;12.872;2024-02-21T08:01:10;15.43;;;5.93;;
4674;SDS011;2351;50.812;12.872;2024-02-21T08:03:42;14.30;;;5.60;;
4674;SDS011;2351;50.812;12.872;2024-02-21T08:06:13;12.03;;;6.13;;
4674;SDS011;2351;50.812;12.872;2024-02-21T08:08:45;11.80;;;5.60;;
4674;SDS011;2351;50.812;12.872;2024-02-21T08:11:17;13.77;;;6.03;;
4674;SDS011;2351;50.812;12.872;2024-02-21T08:13:50;20.33;;;5.47;;
4674;SDS011;2351;50.812;12.872;2024-02-21T08:16:21;14.13;;;6.00;;
4674;SDS011;2351;50.812;12.872;2024-02-21T08:18:53;20.10;;;6.87;;
4674;SDS011;2351;50.812;12.872;2024-02-21T08:21:25;20.20;;;6.23;;
4674;SDS011;2351;50.812;12.872;2024-02-21T08:23:56;10.70;;;5.77;;
4674;SDS011;2351;50.812;12.872;2024-02-21T08:26:28;14.50;;;5.30;;
4674;SDS011;2351;50.812;12.872;2024-02-21T08:29:02;16.97;;;5.60;;
4674;SDS011;2351;50.812;12.872;2024-02-21T08:31:34;14.03;;;5.60;;
4674;SDS011;2351;50.812;12.872;2024-02-21T08:34:06;15.33;;;6.50;;
4674;SDS011;2351;50.812;12.872;2024-02-21T08:36:37;9.83;;;5.30;;
4674;SDS011;2351;50.812;12.872;2024-02-21T08:39:08;15.53;;;6.13;;
4674;SDS011;2351;50.812;12.872;2024-02-21T08:41:41;9.17;;;5.17;;
4674;SDS011;2351;50.812;12.872;2024-02-21T08:44:14;12.03;;;5.47;;
4674;SDS011;2351;50.812;12.872;2024-02-21T08:46:45;14.10;;;5.70;;
4674;SDS011;2351;50.812;12.872;2024-02-21T08:49:17;10.03;;;4.43;;
4674;SDS011;2351;50.812;12.872;2024-02-21T08:51:49;10.57;;;5.17;;
4674;SDS011;2351;50.812;12.872;2024-02-21T08:54:21;11.40;;;4.93;;
4674;SDS011;2351;50.812;12.872;2024-02-21T08:56:52;12.50;;;4.97;;
4674;SDS011;2351;50.812;12.872;2024-02-21T08:59:27;11.17;;;5.33;;
4674;SDS011;2351;50.812;12.872;2024-02-21T09:01:58;12.33;;;4.70;;
4674;SDS011;2351;50.812;12.872;2024-02-21T09:04:30;10.20;;;4.97;;
4674;SDS011;2351;50.812;12.872;2024-02-21T09:07:02;10.60;;;4.47;;
4674;SDS011;2351;50.812;12.872;2024-02-21T09:09:33;10.80;;;4.97;;
4674;SDS011;2351;50.812;12.872;2024-02-21T09:12:06;10.23;;;4.30;;
4674;SDS011;2351;50.812;12.872;2024-02-21T09:14:39;8.80;;;4.50;;
4674;SDS011;2351;50.812;12.872;2024-02-21T09:17:11;13.10;;;5.00;;
4674;SDS011;2351;50.812;12.872;2024-02-21T09:19:44;16.43;;;5.93;;
4674;SDS011;2351;50.812;12.872;2024-02-21T09:22:16;13.90;;;5.17;;
4674;SDS011;2351;50.812;12.872;2024-02-21T09:24:48;7.20;;;3.93;;
4674;SDS011;2351;50.812;12.872;2024-02-21T09:27:19;11.13;;;5.00;;
4674;SDS011;2351;50.812;12.872;2024-02-21T09:29:53;10.07;;;4.70;;
4674;SDS011;2351;50.812;12.872;2024-02-21T09:32:25;10.20;;;4.63;;
4674;SDS011;2351;50.812;12.872;2024-02-21T09:34:57;9.00;;;4.20;;
4674;SDS011;2351;50.812;12.872;2024-02-21T09:37:28;8.73;;;4.50;;
4674;SDS011;2351;50.812;12.872;2024-02-21T09:40:00;10.43;;;4.40;;
4674;SDS011;2351;50.812;12.872;2024-02-21T09:42:36;7.37;;;4.30;;
4674;SDS011;2351;50.812;12.872;2024-02-21T09:45:13;10.00;;;4.30;;
4674;SDS011;2351;50.812;12.872;2024-02-21T09:47:52;8.97;;;4.40;;
4674;SDS011;2351;50.812;12.872;2024-02-21T09:50:35;14.13;;;4.70;;
4674;SDS011;2351;50.812;12.872;2024-02-21T09:53:11;7.23;;;4.70;;
4674;SDS011;2351;50.812;12.872;2024-02-21T09:55:44;15.53;;;4.97;;
4674;SDS011;2351;50.812;12.872;2024-02-21T09:58:16;16.73;;;4.70;;
4674;SDS011;2351;50.812;12.872;2024-02-21T10:00:49;12.63;;;4.80;;
4674;SDS011;2351;50.812;12.872;2024-02-21T10:03:21;14.10;;;5.13;;
4674;SDS011;2351;50.812;12.872;2024-02-21T10:05:53;11.27;;;4.23;;
4674;SDS011;2351;50.812;12.872;2024-02-21T10:08:25;9.83;;;4.17;;
4674;SDS011;2351;50.812;12.872;2024-02-21T10:10:56;8.83;;;3.87;;
4674;SDS011;2351;50.812;12.872;2024-02-21T10:13:30;5.80;;;4.00;;
4674;SDS011;2351;50.812;12.872;2024-02-21T10:16:04;10.60;;;4.20;;
4674;SDS011;2351;50.812;12.872;2024-02-21T10:18:37;10.80;;;4.53;;
4674;SDS011;2351;50.812;12.872;2024-02-21T10:21:08;9.40;;;4.67;;
4674;SDS011;2351;50.812;12.872;2024-02-21T10:23:41;10.00;;;4.10;;
4674;SDS011;2351;50.812;12.872;2024-02-21T10:26:16;11.57;;;3.60;;
4674;SDS011;2351;50.812;12.872;2024-02-21T10:28:48;6.87;;;3.30;;
4674;SDS011;2351;50.812;12.872;2024-02-21T10:31:23;9.80;;;3.20;;
4674;SDS011;2351;50.812;12.872;2024-02-21T10:33:56;15.43;;;4.23;;
4674;SDS011;2351;50.812;12.872;2024-02-21T10:36:29;12.53;;;4.87;;
4674;SDS011;2351;50.812;12.872;2024-02-21T10:39:00;10.83;;;4.20;;
4674;SDS011;2351;50.812;12.872;2024-02-21T10:41:32;7.73;;;3.97;;
4674;SDS011;2351;50.812;12.872;2024-02-21T10:44:04;11.33;;;3.53;;
4674;SDS011;2351;50.812;12.872;2024-02-21T10:46:38;10.13;;;4.27;;
4674;SDS011;2351;50.812;12.872;2024-02-21T10:49:12;8.23;;;4.20;;
4674;SDS011;2351;50.812;12.872;2024-02-21T10:51:52;5.17;;;3.07;;
4674;SDS011;2351;50.812;12.872;2024-02-21T10:54:34;9.70;;;3.33;;
4674;SDS011;2351;50.812;12.872;2024-02-21T10:57:13;6.70;;;3.63;;
4674;SDS011;2351;50.812;12.872;2024-02-21T10:59:45;13.13;;;3.67;;
4674;SDS011;2351;50.812;12.872;2024-02-21T11:02:20;11.43;;;4.60;;
4674;SDS011;2351;50.812;12.872;2024-02-21T11:04:53;7.50;;;3.40;;
4674;SDS011;2351;50.812;12.872;2024-02-21T11:07:26;7.70;;;3.40;;
4674;SDS011;2351;50.812;12.872;2024-02-21T11:09:58;12.13;;;3.50;;
4674;SDS011;2351;50.812;12.872;2024-02-21T11:12:32;11.13;;;4.00;;
4674;SDS011;2351;50.812;12.872;2024-02-21T11:15:04;6.23;;;3.37;;
4674;SDS011;2351;50.812;12.872;2024-02-21T11:17:37;10.50;;;4.03;;
4674;SDS011;2351;50.812;12.872;2024-02-21T11:20:13;15.53;;;3.60;;
4674;SDS011;2351;50.812;12.872;2024-02-21T11:22:45;7.90;;;3.33;;
4674;SDS011;2351;50.812;12.872;2024-02-21T11:25:21;7.43;;;3.40;;
4674;SDS011;2351;50.812;12.872;2024-02-21T11:27:58;7.80;;;3.00;;
4674;SDS011;2351;50.812;12.872;2024-02-21T11:30:31;9.27;;;3.00;;
4674;SDS011;2351;50.812;12.872;2024-02-21T11:33:05;8.67;;;2.97;;
4674;SDS011;2351;50.812;12.872;2024-02-21T11:35:38;5.80;;;3.17;;
4674;SDS011;2351;50.812;12.872;2024-02-21T11:38:10;10.50;;;3.43;;
4674;SDS011;2351;50.812;12.872;2024-02-21T11:40:45;11.00;;;3.60;;
4674;SDS011;2351;50.812;12.872;2024-02-21T11:43:18;8.17;;;3.00;;
4674;SDS011;2351;50.812;12.872;2024-02-21T11:45:49;3.90;;;2.40;;
4674;SDS011;2351;50.812;12.872;2024-02-21T11:48:23;5.03;;;3.03;;
4674;SDS011;2351;50.812;12.872;2024-02-21T11:50:55;10.87;;;2.97;;
4674;SDS011;2351;50.812;12.872;2024-02-21T11:53:27;8.90;;;2.80;;
4674;SDS011;2351;50.812;12.872;2024-02-21T11:56:01;12.50;;;3.07;;
4674;SDS011;2351;50.812;12.872;2024-02-21T11:58:33;5.27;;;2.53;;
4674;SDS011;2351;50.812;12.872;2024-02-21T12:01:04;6.53;;;2.73;;
4674;SDS011;2351;50.812;12.872;2024-02-21T12:03:38;3.93;;;2.60;;
4674;SDS011;2351;50.812;12.872;2024-02-21T12:06:11;7.10;;;3.03;;
4674;SDS011;2351;50.812;12.872;2024-02-21T12:08:44;8.73;;;3.20;;
4674;SDS011;2351;50.812;12.872;2024-02-21T12:11:18;6.43;;;2.93;;
4674;SDS011;2351;50.812;12.872;2024-02-21T12:14:00;10.10;;;2.70;;
4674;SDS011;2351;50.812;12.872;2024-02-21T12:16:33;5.27;;;2.87;;
4674;SDS011;2351;50.812;12.872;2024-02-21T12:19:07;11.40;;;3.60;;
4674;SDS011;2351;50.812;12.872;2024-02-21T12:21:39;6.23;;;3.00;;
4674;SDS011;2351;50.812;12.872;2024-02-21T12:24:11;9.30;;;3.23;;
4674;SDS011;2351;50.812;12.872;2024-02-21T12:26:44;2.97;;;2.47;;
4674;SDS011;2351;50.812;12.872;2024-02-21T12:29:16;7.30;;;2.70;;
4674;SDS011;2351;50.812;12.872;2024-02-21T12:31:48;7.30;;;3.00;;
4674;SDS011;2351;50.812;12.872;2024-02-21T12:34:21;7.67;;;2.73;;
4674;SDS011;2351;50.812;12.872;2024-02-21T12:36:54;6.53;;;3.20;;
4674;SDS011;2351;50.812;12.872;2024-02-21T12:39:25;4.73;;;2.40;;
4674;SDS011;2351;50.812;12.872;2024-02-21T12:41:58;8.40;;;3.03;;
4674;SDS011;2351;50.812;12.872;2024-02-21T12:44:31;7.07;;;2.40;;
4674;SDS011;2351;50.812;12.872;2024-02-21T12:47:02;5.83;;;2.87;;
4674;SDS011;2351;50.812;12.872;2024-02-21T12:49:35;10.20;;;3.00;;
4674;SDS011;2351;50.812;12.872;2024-02-21T12:52:07;7.20;;;2.77;;
4674;SDS011;2351;50.812;12.872;2024-02-21T12:54:39;12.43;;;2.80;;
4674;SDS011;2351;50.812;12.872;2024-02-21T12:57:11;9.53;;;3.00;;
4674;SDS011;2351;50.812;12.872;2024-02-21T12:59:42;13.03;;;2.93;;
4674;SDS011;2351;50.812;12.872;2024-02-21T13:02:14;5.10;;;3.20;;
4674;SDS011;2351;50.812;12.872;2024-02-21T13:04:47;7.67;;;2.40;;
4674;SDS011;2351;50.812;12.872;2024-02-21T13:07:19;12.30;;;3.37;;
4674;SDS011;2351;50.812;12.872;2024-02-21T13:09:50;16.80;;;2.73;;
4674;SDS011;2351;50.812;12.872;2024-02-21T13:12:22;7.73;;;2.70;;
4674;SDS011;2351;50.812;12.872;2024-02-21T13:14:56;7.03;;;2.50;;
4674;SDS011;2351;50.812;12.872;2024-02-21T13:17:27;4.40;;;2.17;;
4674;SDS011;2351;50.812;12.872;2024-02-21T13:20:03;5.00;;;2.50;;
4674;SDS011;2351;50.812;12.872;2024-02-21T13:22:36;5.03;;;2.23;;
4674;SDS011;2351;50.812;12.872;2024-02-21T13:25:07;7.10;;;3.10;;
4674;SDS011;2351;50.812;12.872;2024-02-21T13:27:40;9.63;;;2.90;;
4674;SDS011;2351;50.812;12.872;2024-02-21T13:30:12;10.10;;;3.17;;
4674;SDS011;2351;50.812;12.872;2024-02-21T13:32:45;4.30;;;2.27;;
4674;SDS011;2351;50.812;12.872;2024-02-21T13:35:18;5.17;;;2.50;;
4674;SDS011;2351;50.812;12.872;2024-02-21T13:37:50;5.00;;;2.40;;
4674;SDS011;2351;50.812;12.872;2024-02-21T13:40:22;7.63;;;2.20;;
4674;SDS011;2351;50.812;12.872;2024-02-21T13:42:55;2.80;;;2.00;;
4674;SDS011;2351;50.812;12.872;2024-02-21T13:45:27;7.90;;;2.73;;
4674;SDS011;2351;50.812;12.872;2024-02-21T13:47:59;3.97;;;2.50;;
4674;SDS011;2351;50.812;12.872;2024-02-21T13:50:32;4.03;;;2.50;;
4674;SDS011;2351;50.812;12.872;2024-02-21T13:53:13;5.10;;;2.30;;
4674;SDS011;2351;50.812;12.872;2024-02-21T13:55:44;11.57;;;2.40;;
4674;SDS011;2351;50.812;12.872;2024-02-21T13:58:16;4.53;;;2.13;;
4674;SDS011;2351;50.812;12.872;2024-02-21T14:00:48;7.00;;;2.37;;
4674;SDS011;2351;50.812;12.872;2024-02-21T14:03:21;8.97;;;2.77;;
4674;SDS011;2351;50.812;12.872;2024-02-21T14:05:54;5.13;;;2.20;;
4674;SDS011;2351;50.812;12.872;2024-02-21T14:08:26;6.03;;;2.20;;
4674;SDS011;2351;50.812;12.872;2024-02-21T14:10:57;4.70;;;2.00;;
4674;SDS011;2351;50.812;12.872;2024-02-21T14:13:30;4.33;;;1.70;;
4674;SDS011;2351;50.812;12.872;2024-02-21T14:16:02;6.73;;;2.40;;
4674;SDS011;2351;50.812;12.872;2024-02-21T14:18:40;6.83;;;2.10;;
4674;SDS011;2351;50.812;12.872;2024-02-21T14:21:14;4.67;;;2.10;;
4674;SDS011;2351;50.812;12.872;2024-02-21T14:23:46;5.00;;;2.40;;
4674;SDS011;2351;50.812;12.872;2024-02-21T14:26:17;4.10;;;1.80;;
4674;SDS011;2351;50.812;12.872;2024-02-21T14:28:49;9.13;;;3.03;;
4674;SDS011;2351;50.812;12.872;2024-02-21T14:31:21;6.90;;;2.33;;
4674;SDS011;2351;50.812;12.872;2024-02-21T14:33:52;2.90;;;1.73;;
4674;SDS011;2351;50.812;12.872;2024-02-21T14:36:25;15.27;;;2.40;;
4674;SDS011;2351;50.812;12.872;2024-02-21T14:38:57;4.13;;;2.00;;
4674;SDS011;2351;50.812;12.872;2024-02-21T14:41:29;6.63;;;2.40;;
4674;SDS011;2351;50.812;12.872;2024-02-21T14:44:01;5.90;;;2.23;;
4674;SDS011;2351;50.812;12.872;2024-02-21T14:46:33;2.73;;;1.90;;
4674;SDS011;2351;50.812;12.872;2024-02-21T14:49:05;8.57;;;2.83;;
4674;SDS011;2351;50.812;12.872;2024-02-21T14:51:38;2.57;;;1.90;;
4674;SDS011;2351;50.812;12.872;2024-02-21T14:54:10;5.60;;;1.97;;
4674;SDS011;2351;50.812;12.872;2024-02-21T14:56:41;4.80;;;2.10;;
4674;SDS011;2351;50.812;12.872;2024-02-21T14:59:13;5.73;;;2.10;;
4674;SDS011;2351;50.812;12.872;2024-02-21T15:01:46;5.37;;;2.90;;
4674;SDS011;2351;50.812;12.872;2024-02-21T15:04:18;6.90;;;2.47;;
4674;SDS011;2351;50.812;12.872;2024-02-21T15:06:51;3.30;;;2.20;;
4674;SDS011;2351;50.812;12.872;2024-02-21T15:09:23;7.57;;;2.23;;
4674;SDS011;2351;50.812;12.872;2024-02-21T15:11:54;7.63;;;2.10;;
4674;SDS011;2351;50.812;12.872;2024-02-21T15:14:26;5.57;;;2.17;;
4674;SDS011;2351;50.812;12.872;2024-02-21T15:16:58;5.63;;;2.83;;
4674;SDS011;2351;50.812;12.872;2024-02-21T15:19:29;6.53;;;2.90;;
4674;SDS011;2351;50.812;12.872;2024-02-21T15:22:04;9.00;;;2.43;;
4674;SDS011;2351;50.812;12.872;2024-02-21T15:24:36;5.00;;;2.83;;